sensor_id;sensor_type;location;lat;lon;timestamp;pressure;altitude;pressure_sealevel;temperature;humidity
80853;BME280;70270;43.434;28.338;2024-02-23T00:00:56;100156.31;;;8.94;83.26
80853;BME280;70270;43.434;28.338;2024-02-23T00:03:41;100190.84;;;9.13;83.67
80853;BME280;70270;43.434;28.338;2024-02-23T00:06:26;100181.53;;;9.01;84.38
80853;BME280;70270;43.434;28.338;2024-02-23T00:09:11;100195.06;;;9.01;84.96
80853;BME280;70270;43.434;28.338;2024-02-23T00:11:56;100185.09;;;8.87;85.99
80853;BME280;70270;43.434;28.338;2024-02-23T00:14:40;100180.53;;;8.87;86.11
80853;BME280;70270;43.434;28.338;2024-02-23T00:17:25;100187.53;;;8.82;86.40
80853;BME280;70270;43.434;28.338;2024-02-23T00:20:10;100192.00;;;8.75;87.28
80853;BME280;70270;43.434;28.338;2024-02-23T00:22:55;100166.38;;;8.71;87.13
80853;BME280;70270;43.434;28.338;2024-02-23T00:25:40;100128.50;;;8.50;86.80
80853;BME280;70270;43.434;28.338;2024-02-23T00:28:24;100159.53;;;8.54;88.04
80853;BME280;70270;43.434;28.338;2024-02-23T00:31:09;100171.63;;;8.58;88.41
80853;BME280;70270;43.434;28.338;2024-02-23T00:33:53;100142.97;;;8.42;88.90
80853;BME280;70270;43.434;28.338;2024-02-23T00:36:41;100132.16;;;8.42;89.00
80853;BME280;70270;43.434;28.338;2024-02-23T00:39:25;100125.63;;;8.36;89.38
80853;BME280;70270;43.434;28.338;2024-02-23T00:42:10;100048.25;;;7.85;89.50
80853;BME280;70270;43.434;28.338;2024-02-23T00:44:54;100170.78;;;8.42;90.14
80853;BME280;70270;43.434;28.338;2024-02-23T00:47:39;100026.84;;;7.69;90.10
80853;BME280;70270;43.434;28.338;2024-02-23T00:50:23;99971.22;;;7.38;90.09
80853;BME280;70270;43.434;28.338;2024-02-23T00:53:10;100143.69;;;8.36;90.71
80853;BME280;70270;43.434;28.338;2024-02-23T00:55:54;100063.50;;;7.78;90.93
80853;BME280;70270;43.434;28.338;2024-02-23T00:58:39;100139.13;;;8.36;91.01
80853;BME280;70270;43.434;28.338;2024-02-23T01:01:23;100155.47;;;8.20;91.43
80853;BME280;70270;43.434;28.338;2024-02-23T01:04:10;100137.25;;;8.22;91.61
80853;BME280;70270;43.434;28.338;2024-02-23T01:06:55;100136.28;;;8.15;91.64
80853;BME280;70270;43.434;28.338;2024-02-23T01:09:39;100153.84;;;8.34;91.21
80853;BME280;70270;43.434;28.338;2024-02-23T01:12:24;100118.34;;;8.22;91.09
80853;BME280;70270;43.434;28.338;2024-02-23T01:15:08;100103.63;;;8.25;91.21
80853;BME280;70270;43.434;28.338;2024-02-23T01:17:53;100050.50;;;7.96;91.45
80853;BME280;70270;43.434;28.338;2024-02-23T01:20:37;100118.53;;;8.35;91.33
80853;BME280;70270;43.434;28.338;2024-02-23T01:23:22;100126.38;;;8.30;91.61
80853;BME280;70270;43.434;28.338;2024-02-23T01:26:07;100116.22;;;8.32;91.54
80853;BME280;70270;43.434;28.338;2024-02-23T01:28:51;100115.28;;;8.40;90.80
80853;BME280;70270;43.434;28.338;2024-02-23T01:31:36;99994.66;;;7.52;90.64
80853;BME280;70270;43.434;28.338;2024-02-23T01:34:21;99930.81;;;7.53;90.35
80853;BME280;70270;43.434;28.338;2024-02-23T01:37:06;100082.25;;;8.38;90.82
80853;BME280;70270;43.434;28.338;2024-02-23T01:39:51;100102.47;;;8.42;90.41
80853;BME280;70270;43.434;28.338;2024-02-23T01:42:35;100056.63;;;8.19;90.40
80853;BME280;70270;43.434;28.338;2024-02-23T01:45:19;100052.53;;;8.09;91.12
80853;BME280;70270;43.434;28.338;2024-02-23T01:48:05;100084.34;;;8.28;91.42
80853;BME280;70270;43.434;28.338;2024-02-23T01:50:50;100068.91;;;8.07;92.58
80853;BME280;70270;43.434;28.338;2024-02-23T01:53:35;100094.41;;;8.19;92.06
80853;BME280;70270;43.434;28.338;2024-02-23T01:56:19;100068.81;;;8.15;92.12
80853;BME280;70270;43.434;28.338;2024-02-23T01:59:06;99943.25;;;7.39;92.90
80853;BME280;70270;43.434;28.338;2024-02-23T02:01:51;100081.56;;;8.21;93.37
80853;BME280;70270;43.434;28.338;2024-02-23T02:04:35;100077.19;;;8.20;93.01
80853;BME280;70270;43.434;28.338;2024-02-23T02:07:19;100071.16;;;8.18;92.92
80853;BME280;70270;43.434;28.338;2024-02-23T02:10:09;100017.19;;;7.89;92.29
80853;BME280;70270;43.434;28.338;2024-02-23T02:12:54;100069.31;;;8.33;93.02
80853;BME280;70270;43.434;28.338;2024-02-23T02:15:38;99993.72;;;7.75;92.85
80853;BME280;70270;43.434;28.338;2024-02-23T02:18:23;100050.69;;;8.09;92.78
80853;BME280;70270;43.434;28.338;2024-02-23T02:21:07;100068.72;;;8.23;92.37
80853;BME280;70270;43.434;28.338;2024-02-23T02:23:51;100076.41;;;8.34;92.38
80853;BME280;70270;43.434;28.338;2024-02-23T02:26:37;99883.84;;;7.18;92.48
80853;BME280;70270;43.434;28.338;2024-02-23T02:29:21;99936.38;;;7.51;92.37
80853;BME280;70270;43.434;28.338;2024-02-23T02:32:06;99940.81;;;7.59;91.93
80853;BME280;70270;43.434;28.338;2024-02-23T02:34:51;99962.50;;;7.66;92.11
80853;BME280;70270;43.434;28.338;2024-02-23T02:37:36;100083.81;;;8.47;91.61
80853;BME280;70270;43.434;28.338;2024-02-23T02:40:20;100036.09;;;8.33;92.22
80853;BME280;70270;43.434;28.338;2024-02-23T02:43:05;100064.16;;;8.53;90.99
80853;BME280;70270;43.434;28.338;2024-02-23T02:45:49;99874.56;;;7.50;90.01
80853;BME280;70270;43.434;28.338;2024-02-23T02:48:34;100065.63;;;8.56;91.20
80853;BME280;70270;43.434;28.338;2024-02-23T02:51:18;100081.94;;;8.48;91.38
80853;BME280;70270;43.434;28.338;2024-02-23T02:54:03;100031.22;;;8.28;91.15
80853;BME280;70270;43.434;28.338;2024-02-23T02:56:47;100052.28;;;8.33;91.82
80853;BME280;70270;43.434;28.338;2024-02-23T02:59:35;100046.84;;;8.48;91.08
80853;BME280;70270;43.434;28.338;2024-02-23T03:02:20;100051.22;;;8.49;90.91
80853;BME280;70270;43.434;28.338;2024-02-23T03:05:05;100051.63;;;8.45;91.01
80853;BME280;70270;43.434;28.338;2024-02-23T03:07:49;100057.00;;;8.45;91.42
80853;BME280;70270;43.434;28.338;2024-02-23T03:10:34;100068.44;;;8.48;91.25
80853;BME280;70270;43.434;28.338;2024-02-23T03:13:18;99917.50;;;7.51;91.92
80853;BME280;70270;43.434;28.338;2024-02-23T03:16:03;100001.34;;;8.15;92.06
80853;BME280;70270;43.434;28.338;2024-02-23T03:18:47;100006.50;;;8.10;91.92
80853;BME280;70270;43.434;28.338;2024-02-23T03:21:32;100059.81;;;8.37;92.00
80853;BME280;70270;43.434;28.338;2024-02-23T03:24:16;100061.50;;;8.38;91.44
80853;BME280;70270;43.434;28.338;2024-02-23T03:27:01;100059.09;;;8.65;90.81
80853;BME280;70270;43.434;28.338;2024-02-23T03:29:45;100061.81;;;8.65;90.96
80853;BME280;70270;43.434;28.338;2024-02-23T03:32:30;100040.69;;;8.54;91.21
80853;BME280;70270;43.434;28.338;2024-02-23T03:35:20;100069.13;;;8.50;91.57
80853;BME280;70270;43.434;28.338;2024-02-23T03:38:05;100035.97;;;8.41;91.34
80853;BME280;70270;43.434;28.338;2024-02-23T03:40:49;99903.19;;;7.66;91.03
80853;BME280;70270;43.434;28.338;2024-02-23T03:43:34;100047.00;;;8.61;90.57
80853;BME280;70270;43.434;28.338;2024-02-23T03:46:19;99756.03;;;7.06;90.21
80853;BME280;70270;43.434;28.338;2024-02-23T03:49:04;100050.88;;;8.73;90.59
80853;BME280;70270;43.434;28.338;2024-02-23T03:51:48;100052.94;;;8.71;90.79
80853;BME280;70270;43.434;28.338;2024-02-23T03:54:33;100066.81;;;8.68;90.52
80853;BME280;70270;43.434;28.338;2024-02-23T03:57:17;100047.63;;;8.63;90.84
80853;BME280;70270;43.434;28.338;2024-02-23T04:00:03;100029.25;;;8.52;91.34
80853;BME280;70270;43.434;28.338;2024-02-23T04:02:55;99999.69;;;8.29;91.57
80853;BME280;70270;43.434;28.338;2024-02-23T04:05:40;100037.28;;;8.45;91.81
80853;BME280;70270;43.434;28.338;2024-02-23T04:08:24;99868.41;;;7.56;91.20
80853;BME280;70270;43.434;28.338;2024-02-23T04:11:12;100041.53;;;8.54;91.57
80853;BME280;70270;43.434;28.338;2024-02-23T04:13:57;100042.00;;;8.43;91.64
80853;BME280;70270;43.434;28.338;2024-02-23T04:16:42;100038.06;;;8.60;91.87
80853;BME280;70270;43.434;28.338;2024-02-23T04:19:26;100046.00;;;8.62;91.13
80853;BME280;70270;43.434;28.338;2024-02-23T04:22:11;99928.44;;;7.94;91.12
80853;BME280;70270;43.434;28.338;2024-02-23T04:24:55;100058.72;;;8.68;91.22
80853;BME280;70270;43.434;28.338;2024-02-23T04:27:39;99905.47;;;7.83;91.85
80853;BME280;70270;43.434;28.338;2024-02-23T04:30:24;99920.81;;;7.83;91.35
80853;BME280;70270;43.434;28.338;2024-02-23T04:33:08;100030.25;;;8.51;91.52
80853;BME280;70270;43.434;28.338;2024-02-23T04:35:53;100040.59;;;8.62;91.26
80853;BME280;70270;43.434;28.338;2024-02-23T04:38:37;100048.91;;;8.45;92.58
80853;BME280;70270;43.434;28.338;2024-02-23T04:41:22;100036.09;;;8.33;93.53
80853;BME280;70270;43.434;28.338;2024-02-23T04:44:07;100028.22;;;8.23;93.60
80853;BME280;70270;43.434;28.338;2024-02-23T04:46:52;100036.72;;;8.20;94.26
80853;BME280;70270;43.434;28.338;2024-02-23T04:49:37;100070.72;;;8.29;94.60
80853;BME280;70270;43.434;28.338;2024-02-23T04:52:22;100051.81;;;8.29;94.33
80853;BME280;70270;43.434;28.338;2024-02-23T04:55:08;100054.31;;;8.31;94.44
80853;BME280;70270;43.434;28.338;2024-02-23T04:57:52;100077.31;;;8.41;93.85
80853;BME280;70270;43.434;28.338;2024-02-23T05:00:37;99989.72;;;8.00;94.17
80853;BME280;70270;43.434;28.338;2024-02-23T05:03:21;99907.63;;;7.59;94.14
80853;BME280;70270;43.434;28.338;2024-02-23T05:06:06;100059.06;;;8.43;94.04
80853;BME280;70270;43.434;28.338;2024-02-23T05:08:50;100015.50;;;8.17;94.14
80853;BME280;70270;43.434;28.338;2024-02-23T05:11:35;100049.09;;;8.44;93.81
80853;BME280;70270;43.434;28.338;2024-02-23T05:14:20;100048.25;;;8.43;93.81
80853;BME280;70270;43.434;28.338;2024-02-23T05:17:05;100058.38;;;8.56;93.84
80853;BME280;70270;43.434;28.338;2024-02-23T05:19:49;99849.34;;;7.43;92.71
80853;BME280;70270;43.434;28.338;2024-02-23T05:22:33;100069.53;;;8.68;92.90
80853;BME280;70270;43.434;28.338;2024-02-23T05:25:18;100062.16;;;8.76;92.30
80853;BME280;70270;43.434;28.338;2024-02-23T05:28:03;99893.13;;;7.60;92.09
80853;BME280;70270;43.434;28.338;2024-02-23T05:30:47;99928.66;;;7.78;92.88
80853;BME280;70270;43.434;28.338;2024-02-23T05:33:32;99917.13;;;7.69;92.67
80853;BME280;70270;43.434;28.338;2024-02-23T05:36:16;100029.72;;;8.26;93.02
80853;BME280;70270;43.434;28.338;2024-02-23T05:39:02;100077.47;;;8.55;92.85
80853;BME280;70270;43.434;28.338;2024-02-23T05:41:47;100066.41;;;8.20;94.04
80853;BME280;70270;43.434;28.338;2024-02-23T05:44:31;100028.50;;;8.28;93.38
80853;BME280;70270;43.434;28.338;2024-02-23T05:47:16;99892.28;;;7.59;93.63
80853;BME280;70270;43.434;28.338;2024-02-23T05:50:00;100067.88;;;8.88;93.35
80853;BME280;70270;43.434;28.338;2024-02-23T05:52:45;100052.06;;;8.85;92.03
80853;BME280;70270;43.434;28.338;2024-02-23T05:55:30;100029.66;;;8.70;91.85
80853;BME280;70270;43.434;28.338;2024-02-23T05:58:15;100079.34;;;8.90;91.56
80853;BME280;70270;43.434;28.338;2024-02-23T06:01:00;100054.41;;;9.09;91.13
80853;BME280;70270;43.434;28.338;2024-02-23T06:03:45;99871.56;;;7.60;90.81
80853;BME280;70270;43.434;28.338;2024-02-23T06:06:29;99901.22;;;7.74;91.97
80853;BME280;70270;43.434;28.338;2024-02-23T06:09:15;100000.81;;;8.34;92.77
80853;BME280;70270;43.434;28.338;2024-02-23T06:12:00;100067.22;;;8.65;92.49
80853;BME280;70270;43.434;28.338;2024-02-23T06:14:44;100023.00;;;8.51;92.46
80853;BME280;70270;43.434;28.338;2024-02-23T06:17:29;100070.25;;;8.76;92.17
80853;BME280;70270;43.434;28.338;2024-02-23T06:20:14;100089.28;;;8.68;92.44
80853;BME280;70270;43.434;28.338;2024-02-23T06:22:58;100031.47;;;8.48;92.56
80853;BME280;70270;43.434;28.338;2024-02-23T06:25:43;100043.75;;;8.65;92.21
80853;BME280;70270;43.434;28.338;2024-02-23T06:28:30;100077.63;;;8.68;92.79
80853;BME280;70270;43.434;28.338;2024-02-23T06:31:15;100091.41;;;8.73;92.36
80853;BME280;70270;43.434;28.338;2024-02-23T06:33:59;100080.06;;;8.63;92.35
80853;BME280;70270;43.434;28.338;2024-02-23T06:36:44;100072.22;;;8.68;92.59
80853;BME280;70270;43.434;28.338;2024-02-23T06:39:29;99940.25;;;7.93;92.63
80853;BME280;70270;43.434;28.338;2024-02-23T06:42:13;99917.50;;;7.66;92.50
80853;BME280;70270;43.434;28.338;2024-02-23T06:44:58;100079.38;;;8.75;92.63
80853;BME280;70270;43.434;28.338;2024-02-23T06:47:44;100064.22;;;8.60;92.53
80853;BME280;70270;43.434;28.338;2024-02-23T06:50:29;100080.22;;;8.76;92.51
80853;BME280;70270;43.434;28.338;2024-02-23T06:53:14;99774.78;;;6.85;92.40
80853;BME280;70270;43.434;28.338;2024-02-23T06:55:58;100075.09;;;8.81;92.35
80853;BME280;70270;43.434;28.338;2024-02-23T06:58:43;100044.81;;;8.50;92.30
80853;BME280;70270;43.434;28.338;2024-02-23T07:01:27;100090.06;;;8.83;92.41
80853;BME280;70270;43.434;28.338;2024-02-23T07:04:12;100084.66;;;8.98;91.68
80853;BME280;70270;43.434;28.338;2024-02-23T07:06:57;100104.97;;;8.94;91.88
80853;BME280;70270;43.434;28.338;2024-02-23T07:09:42;100078.69;;;8.88;91.43
80853;BME280;70270;43.434;28.338;2024-02-23T07:12:26;100096.75;;;9.02;91.91
80853;BME280;70270;43.434;28.338;2024-02-23T07:15:14;100044.09;;;8.77;91.71
80853;BME280;70270;43.434;28.338;2024-02-23T07:17:59;100107.09;;;8.99;91.06
80853;BME280;70270;43.434;28.338;2024-02-23T07:20:43;100075.25;;;8.94;91.53
80853;BME280;70270;43.434;28.338;2024-02-23T07:23:28;99921.75;;;7.90;91.61
80853;BME280;70270;43.434;28.338;2024-02-23T07:26:12;99983.00;;;8.40;91.40
80853;BME280;70270;43.434;28.338;2024-02-23T07:28:57;99925.75;;;7.94;91.41
80853;BME280;70270;43.434;28.338;2024-02-23T07:31:41;100045.53;;;8.94;91.47
80853;BME280;70270;43.434;28.338;2024-02-23T07:34:26;100059.66;;;8.96;91.57
80853;BME280;70270;43.434;28.338;2024-02-23T07:37:11;100059.22;;;8.92;91.58
80853;BME280;70270;43.434;28.338;2024-02-23T07:39:55;99981.75;;;8.42;91.36
80853;BME280;70270;43.434;28.338;2024-02-23T07:42:40;100064.25;;;9.17;90.95
80853;BME280;70270;43.434;28.338;2024-02-23T07:45:24;100044.28;;;8.97;91.16
80853;BME280;70270;43.434;28.338;2024-02-23T07:48:10;100063.84;;;9.20;90.67
80853;BME280;70270;43.434;28.338;2024-02-23T07:50:55;100056.56;;;9.20;91.42
80853;BME280;70270;43.434;28.338;2024-02-23T07:53:40;100061.09;;;9.13;90.75
80853;BME280;70270;43.434;28.338;2024-02-23T07:56:25;100045.81;;;9.27;90.78
80853;BME280;70270;43.434;28.338;2024-02-23T07:59:09;100079.22;;;9.62;89.09
80853;BME280;70270;43.434;28.338;2024-02-23T08:01:54;100072.25;;;9.53;89.83
80853;BME280;70270;43.434;28.338;2024-02-23T08:04:39;100080.91;;;9.63;88.77
80853;BME280;70270;43.434;28.338;2024-02-23T08:07:24;100071.13;;;9.68;89.14
80853;BME280;70270;43.434;28.338;2024-02-23T08:10:10;100075.31;;;9.71;88.36
80853;BME280;70270;43.434;28.338;2024-02-23T08:12:56;100040.69;;;9.60;88.34
80853;BME280;70270;43.434;28.338;2024-02-23T08:15:40;99893.56;;;8.71;87.71
80853;BME280;70270;43.434;28.338;2024-02-23T08:18:24;100053.00;;;9.90;87.66
80853;BME280;70270;43.434;28.338;2024-02-23T08:21:10;100059.38;;;10.10;86.38
80853;BME280;70270;43.434;28.338;2024-02-23T08:23:54;100054.38;;;10.14;85.52
80853;BME280;70270;43.434;28.338;2024-02-23T08:26:39;100079.75;;;10.06;85.51
80853;BME280;70270;43.434;28.338;2024-02-23T08:29:26;99919.16;;;9.24;86.18
80853;BME280;70270;43.434;28.338;2024-02-23T08:32:11;100026.16;;;9.95;85.61
80853;BME280;70270;43.434;28.338;2024-02-23T08:34:55;100029.78;;;10.09;84.91
80853;BME280;70270;43.434;28.338;2024-02-23T08:37:43;99899.22;;;9.31;84.89
80853;BME280;70270;43.434;28.338;2024-02-23T08:40:27;100082.88;;;10.38;83.68
80853;BME280;70270;43.434;28.338;2024-02-23T08:43:13;100045.44;;;10.13;84.83
80853;BME280;70270;43.434;28.338;2024-02-23T08:45:57;100079.41;;;10.16;85.77
80853;BME280;70270;43.434;28.338;2024-02-23T08:48:42;100046.78;;;9.96;84.61
80853;BME280;70270;43.434;28.338;2024-02-23T08:51:26;100090.09;;;9.96;84.98
80853;BME280;70270;43.434;28.338;2024-02-23T08:54:11;100099.41;;;10.15;85.18
80853;BME280;70270;43.434;28.338;2024-02-23T08:56:56;100068.81;;;10.21;84.89
80853;BME280;70270;43.434;28.338;2024-02-23T08:59:40;100071.97;;;10.24;84.56
80853;BME280;70270;43.434;28.338;2024-02-23T09:02:25;100074.66;;;9.90;84.45
80853;BME280;70270;43.434;28.338;2024-02-23T09:05:09;100077.78;;;9.94;85.21
80853;BME280;70270;43.434;28.338;2024-02-23T09:07:54;100102.44;;;10.05;85.73
80853;BME280;70270;43.434;28.338;2024-02-23T09:10:39;100048.09;;;9.79;85.29
80853;BME280;70270;43.434;28.338;2024-02-23T09:13:23;99921.44;;;9.27;84.34
80853;BME280;70270;43.434;28.338;2024-02-23T09:16:08;100097.88;;;10.40;83.49
80853;BME280;70270;43.434;28.338;2024-02-23T09:18:53;100103.88;;;10.70;82.78
80853;BME280;70270;43.434;28.338;2024-02-23T09:21:37;100046.72;;;10.17;82.35
80853;BME280;70270;43.434;28.338;2024-02-23T09:24:22;100084.75;;;10.37;82.51
80853;BME280;70270;43.434;28.338;2024-02-23T09:27:06;100119.59;;;10.47;81.59
80853;BME280;70270;43.434;28.338;2024-02-23T09:29:53;100109.53;;;10.75;81.20
80853;BME280;70270;43.434;28.338;2024-02-23T09:32:38;100105.06;;;10.54;81.96
80853;BME280;70270;43.434;28.338;2024-02-23T09:35:22;100099.66;;;10.67;81.01
80853;BME280;70270;43.434;28.338;2024-02-23T09:38:06;99911.00;;;9.93;80.45
80853;BME280;70270;43.434;28.338;2024-02-23T09:40:51;99904.66;;;9.66;80.08
80853;BME280;70270;43.434;28.338;2024-02-23T09:43:36;100089.91;;;10.73;79.92
80853;BME280;70270;43.434;28.338;2024-02-23T09:46:20;100080.50;;;10.69;80.19
80853;BME280;70270;43.434;28.338;2024-02-23T09:49:07;100083.03;;;10.77;80.18
80853;BME280;70270;43.434;28.338;2024-02-23T09:51:57;99962.25;;;9.94;79.25
80853;BME280;70270;43.434;28.338;2024-02-23T09:54:42;99916.34;;;9.79;79.76
80853;BME280;70270;43.434;28.338;2024-02-23T09:57:27;100075.94;;;10.76;80.47
80853;BME280;70270;43.434;28.338;2024-02-23T10:00:12;100075.56;;;10.79;79.91
80853;BME280;70270;43.434;28.338;2024-02-23T10:02:57;100042.56;;;10.69;79.69
80853;BME280;70270;43.434;28.338;2024-02-23T10:05:42;100084.19;;;11.09;79.19
80853;BME280;70270;43.434;28.338;2024-02-23T10:08:28;100082.34;;;11.36;78.24
80853;BME280;70270;43.434;28.338;2024-02-23T10:11:13;100033.47;;;10.96;78.49
80853;BME280;70270;43.434;28.338;2024-02-23T10:13:57;100049.09;;;10.88;78.54
80853;BME280;70270;43.434;28.338;2024-02-23T10:16:42;100055.19;;;11.09;78.48
80853;BME280;70270;43.434;28.338;2024-02-23T10:19:26;99925.00;;;10.57;78.27
80853;BME280;70270;43.434;28.338;2024-02-23T10:22:13;100071.94;;;11.59;78.12
80853;BME280;70270;43.434;28.338;2024-02-23T10:24:59;100062.34;;;11.63;76.64
80853;BME280;70270;43.434;28.338;2024-02-23T10:27:43;100128.72;;;11.54;76.73
80853;BME280;70270;43.434;28.338;2024-02-23T10:30:28;100060.63;;;11.36;77.48
80853;BME280;70270;43.434;28.338;2024-02-23T10:33:13;100077.59;;;11.51;77.60
80853;BME280;70270;43.434;28.338;2024-02-23T10:36:00;100067.38;;;11.59;77.19
80853;BME280;70270;43.434;28.338;2024-02-23T10:38:46;100065.25;;;11.68;77.11
80853;BME280;70270;43.434;28.338;2024-02-23T10:41:34;100070.25;;;12.10;76.11
80853;BME280;70270;43.434;28.338;2024-02-23T10:44:19;100054.09;;;12.86;73.02
80853;BME280;70270;43.434;28.338;2024-02-23T10:47:04;99900.41;;;11.17;74.96
80853;BME280;70270;43.434;28.338;2024-02-23T10:49:49;100060.28;;;11.91;75.86
80853;BME280;70270;43.434;28.338;2024-02-23T10:52:33;99916.69;;;11.04;76.31
80853;BME280;70270;43.434;28.338;2024-02-23T10:55:20;100051.00;;;12.25;75.00
80853;BME280;70270;43.434;28.338;2024-02-23T10:58:09;100039.75;;;12.66;73.57
80853;BME280;70270;43.434;28.338;2024-02-23T11:01:01;99976.66;;;12.06;72.47
80853;BME280;70270;43.434;28.338;2024-02-23T11:03:47;99949.63;;;11.41;74.58
80853;BME280;70270;43.434;28.338;2024-02-23T11:06:34;100069.63;;;12.08;74.37
80853;BME280;70270;43.434;28.338;2024-02-23T11:09:25;100052.00;;;12.37;74.55
80853;BME280;70270;43.434;28.338;2024-02-23T11:12:09;99893.16;;;11.95;72.50
80853;BME280;70270;43.434;28.338;2024-02-23T11:14:58;100045.00;;;12.68;72.93
80853;BME280;70270;43.434;28.338;2024-02-23T11:17:49;100046.97;;;12.85;71.93
80853;BME280;70270;43.434;28.338;2024-02-23T11:20:35;100007.47;;;12.76;71.64
80853;BME280;70270;43.434;28.338;2024-02-23T11:23:21;100007.88;;;13.18;70.61
80853;BME280;70270;43.434;28.338;2024-02-23T11:26:06;99878.41;;;11.78;71.86
80853;BME280;70270;43.434;28.338;2024-02-23T11:28:53;99992.34;;;12.04;73.42
80853;BME280;70270;43.434;28.338;2024-02-23T11:31:44;100058.63;;;12.48;73.58
80853;BME280;70270;43.434;28.338;2024-02-23T11:34:31;99918.00;;;11.92;72.85
80853;BME280;70270;43.434;28.338;2024-02-23T11:37:18;99872.53;;;11.81;72.47
80853;BME280;70270;43.434;28.338;2024-02-23T11:40:03;100024.38;;;12.91;71.74
80853;BME280;70270;43.434;28.338;2024-02-23T11:42:49;99996.06;;;12.61;72.56
80853;BME280;70270;43.434;28.338;2024-02-23T11:45:33;99867.41;;;12.11;71.81
80853;BME280;70270;43.434;28.338;2024-02-23T11:48:18;99897.59;;;12.28;71.64
80853;BME280;70270;43.434;28.338;2024-02-23T11:51:03;100019.44;;;12.75;72.66
80853;BME280;70270;43.434;28.338;2024-02-23T11:53:47;100027.50;;;12.88;71.99
80853;BME280;70270;43.434;28.338;2024-02-23T11:56:32;100006.13;;;12.98;72.02
80853;BME280;70270;43.434;28.338;2024-02-23T11:59:17;100005.28;;;13.54;70.46
80853;BME280;70270;43.434;28.338;2024-02-23T12:02:01;99842.56;;;12.39;70.39
80853;BME280;70270;43.434;28.338;2024-02-23T12:04:46;99982.78;;;13.40;69.26
80853;BME280;70270;43.434;28.338;2024-02-23T12:07:32;100011.72;;;14.02;68.82
80853;BME280;70270;43.434;28.338;2024-02-23T12:10:17;100048.69;;;13.49;69.80
80853;BME280;70270;43.434;28.338;2024-02-23T12:13:01;99957.38;;;12.97;70.63
80853;BME280;70270;43.434;28.338;2024-02-23T12:15:48;100012.06;;;13.70;69.29
80853;BME280;70270;43.434;28.338;2024-02-23T12:18:36;100014.00;;;14.05;67.95
80853;BME280;70270;43.434;28.338;2024-02-23T12:21:22;100015.13;;;14.71;65.90
80853;BME280;70270;43.434;28.338;2024-02-23T12:24:08;99878.84;;;13.68;65.89
80853;BME280;70270;43.434;28.338;2024-02-23T12:26:54;100014.84;;;14.06;67.65
80853;BME280;70270;43.434;28.338;2024-02-23T12:29:39;99986.31;;;13.47;69.40
80853;BME280;70270;43.434;28.338;2024-02-23T12:32:23;99983.19;;;13.44;69.82
80853;BME280;70270;43.434;28.338;2024-02-23T12:35:11;100000.31;;;13.51;70.18
80853;BME280;70270;43.434;28.338;2024-02-23T12:37:58;99868.06;;;12.69;69.63
80853;BME280;70270;43.434;28.338;2024-02-23T12:40:43;100004.09;;;13.68;69.17
80853;BME280;70270;43.434;28.338;2024-02-23T12:43:27;100017.69;;;13.50;69.57
80853;BME280;70270;43.434;28.338;2024-02-23T12:46:12;100002.06;;;13.39;70.67
80853;BME280;70270;43.434;28.338;2024-02-23T12:48:58;99984.69;;;13.40;70.15
80853;BME280;70270;43.434;28.338;2024-02-23T12:51:43;99994.47;;;13.90;68.92
80853;BME280;70270;43.434;28.338;2024-02-23T12:54:27;100024.34;;;14.40;68.03
80853;BME280;70270;43.434;28.338;2024-02-23T12:57:12;99870.91;;;14.33;65.63
80853;BME280;70270;43.434;28.338;2024-02-23T12:59:57;99990.22;;;15.50;63.58
80853;BME280;70270;43.434;28.338;2024-02-23T13:02:41;99990.88;;;15.34;63.15
80853;BME280;70270;43.434;28.338;2024-02-23T13:05:26;99969.66;;;13.98;66.55
80853;BME280;70270;43.434;28.338;2024-02-23T13:08:11;99984.41;;;13.48;69.45
80853;BME280;70270;43.434;28.338;2024-02-23T13:10:56;99979.19;;;13.46;70.02
80853;BME280;70270;43.434;28.338;2024-02-23T13:13:41;99990.38;;;13.56;69.48
80853;BME280;70270;43.434;28.338;2024-02-23T13:16:25;99999.75;;;13.85;68.98
80853;BME280;70270;43.434;28.338;2024-02-23T13:19:10;99956.78;;;13.87;68.64
80853;BME280;70270;43.434;28.338;2024-02-23T13:21:54;100005.38;;;14.45;66.55
80853;BME280;70270;43.434;28.338;2024-02-23T13:24:39;99985.53;;;15.16;65.72
80853;BME280;70270;43.434;28.338;2024-02-23T13:27:24;99838.66;;;14.48;63.77
80853;BME280;70270;43.434;28.338;2024-02-23T13:30:09;99997.81;;;14.95;65.31
80853;BME280;70270;43.434;28.338;2024-02-23T13:32:53;99749.78;;;14.29;62.94
80853;BME280;70270;43.434;28.338;2024-02-23T13:35:38;99968.50;;;15.78;62.45
80853;BME280;70270;43.434;28.338;2024-02-23T13:38:24;99824.59;;;15.44;61.10
80853;BME280;70270;43.434;28.338;2024-02-23T13:41:08;99973.56;;;16.73;60.01
80853;BME280;70270;43.434;28.338;2024-02-23T13:43:53;99822.44;;;15.46;60.26
80853;BME280;70270;43.434;28.338;2024-02-23T13:46:38;99895.09;;;15.70;61.58
80853;BME280;70270;43.434;28.338;2024-02-23T13:49:23;99794.56;;;14.63;62.81
80853;BME280;70270;43.434;28.338;2024-02-23T13:52:07;99965.03;;;15.36;63.65
80853;BME280;70270;43.434;28.338;2024-02-23T13:54:52;100005.00;;;14.89;64.71
80853;BME280;70270;43.434;28.338;2024-02-23T13:57:36;99973.28;;;15.07;64.85
80853;BME280;70270;43.434;28.338;2024-02-23T14:00:21;99942.03;;;14.91;64.36
80853;BME280;70270;43.434;28.338;2024-02-23T14:03:06;99979.81;;;14.46;66.26
80853;BME280;70270;43.434;28.338;2024-02-23T14:05:50;100005.66;;;14.73;66.55
80853;BME280;70270;43.434;28.338;2024-02-23T14:08:35;99966.41;;;14.74;65.67
80853;BME280;70270;43.434;28.338;2024-02-23T14:11:21;99995.34;;;14.75;65.98
80853;BME280;70270;43.434;28.338;2024-02-23T14:14:06;99986.16;;;14.88;65.47
80853;BME280;70270;43.434;28.338;2024-02-23T14:16:52;99824.53;;;14.21;65.14
80853;BME280;70270;43.434;28.338;2024-02-23T14:19:36;99978.91;;;15.35;63.92
80853;BME280;70270;43.434;28.338;2024-02-23T14:22:21;99995.84;;;15.25;64.27